Terminal Aerodrome Forecast
Issued by NWS

Home | Current Version | Previous Version | Graphics & Text | Print | Product List | Glossary On
Versions: 1 2 3 4 5 6 7 8 9 10 11 12 13 14 15 16 17 18 19 20 21 22 23 24 25 26 27 28 29 30 31 32
530
FTUS43 KLOT 260325 AAB
TAFORD
TAF AMD
KORD 260325Z 2603/2706 09006KT P6SM FEW009 BKN040
     FM260600 18006KT P6SM BKN250
     FM260900 19005KT 4SM BR FEW020 BKN250
     FM261400 21009KT P6SM SCT035 BKN250=

USA.gov is the U.S. government's official web portal to all federal, state and local government web resources and services.